Historyczne dane pomiarowe

Dodano dane terminowe – wersja testowa.

Dane z okresu 1951-2019

Wersja bazy: 1.34 [2019-03-16, lista zmian], aktualizacja planowana na 2019-04-15

Dane meteo z obszaru Polski uzyskane na podstawie danych udostępnionych przez Instytut Meteorologii i Gospodarki Wodnej – Państwowy Instytut Badawczy.

 

Wybierz Datę:    

       

TemperaturaWilgotnośćWiatrCiśnienieOpadyŚniegCzas trwania zjawisk
 Stacja t tx tn tng RH VA  wxwx mslp ppp RRR   cm mm wxwxwxwxwxwxwx
1983-08-14 14.2 19.7 8.9 6.0 74.8- 3.7 2.7---- 0.0------------
1983-08-13 15.1 20.9 12.1 11.6 74.5- 3.0 6.0---- 4.9------------
1983-08-12 19.8 25.9 13.3 8.4 66.0- 2.7 3.7---- 15.9------------
1983-08-11 20.9 28.8 11.8 8.5 65.5- 2.0 1.0---- 0.0------------
1983-08-10 21.2 27.8 14.6 10.0 70.3- 1.3 1.0---- 0.0------------
1983-08-09 19.9 27.4 12.1 10.0 72.5- 1.0 0.7---- 0.0------------
1983-08-08 18.4 26.5 14.8 11.0 83.3- 5.3 2.0---- 17.0------------
1983-08-07 17.0 23.5 11.3 7.2 87.0- 5.7 1.0---- 0.2------------
1983-08-06 16.1 21.4 10.6 7.8 77.5- 3.0 1.7---- 0.0------------
1983-08-05 13.9 17.8 11.3 11.3 86.5- 5.3 1.7---- 0.1------------
1983-08-04 12.1 13.0 11.4 11.3 96.0- 8.0 5.0---- 22.7------------
1983-08-03 14.4 22.6 11.8 12.9 87.8- 8.0 5.3---- 29.6------------
1983-08-02 22.9 29.9 19.7 15.0 65.8- 4.3 2.0---- 0.0------------
1983-08-01 24.0 33.7 14.0 7.7 45.0- 1.0 5.0---- 0.0------------
1983-07-31 18.0 27.5 5.9 2.6 64.8- 0.0 1.0---- 0.0------------
1983-07-30 18.3 21.8 15.8 14.8 70.5- 3.0 4.7---- 0.0------------
1983-07-29 18.4 24.1 14.9 11.0 73.5- 4.0 4.7---- 3.4------------
1983-07-28 23.4 31.0 18.9 15.5 54.8- 2.0 3.0---- 0.0------------
1983-07-27 24.3 35.5 11.4 8.5 55.3- 1.7 1.0---- 0.0------------
1983-07-26 21.6 29.7 9.9 6.1 58.0- 0.0 1.0---- 0.0------------
1983-07-25 18.6 26.7 7.1 2.9 64.5- 0.0 1.3---- 0.0------------
1983-07-24 18.6 25.4 10.4 7.0 70.5- 1.7 2.0---- 0.0------------
1983-07-23 20.0 26.2 12.4 9.0 66.3- 0.0 3.3---- 0.0------------
1983-07-22 14.8 18.5 11.8 7.7 80.3- 7.3 2.7---- 0.0------------
1983-07-21 14.6 19.5 9.4 5.8 55.8- 2.0 5.0---- 0.0------------
1983-07-20 15.0 22.4 11.8 12.0 71.0- 5.3 3.3---- 0.7------------
1983-07-19 20.7 28.9 15.3 17.3 79.0- 6.0 3.0---- 1.5------------
1983-07-18 24.5 33.9 15.3 11.5 60.0- 2.7 2.0---- 7.7------------
1983-07-17 20.6 28.1 11.9 9.0 63.5- 0.0 1.3---- 0.0------------
1983-07-16 19.9 25.2 16.0 12.0 78.3- 5.0 2.0---- 3.8------------
1983-07-15 21.0 26.8 14.4 11.0 58.3- 1.0 3.0---- 0.0------------
1983-07-14 20.2 25.4 16.5 13.1 76.0- 4.3 2.3---- 2.2------------
1983-07-13 20.0 25.7 16.3 12.0 73.3- 3.7 3.0---- 0.0------------
1983-07-12 22.7 30.2 17.0 11.9 58.8- 3.7 3.3---- 27.6------------
1983-07-11 24.5 31.1 17.3 10.0 49.5- 2.3 2.7---- 0.0------------
1983-07-10 24.8 31.4 15.9 9.6 48.5- 0.7 2.3---- 0.0------------
1983-07-09 22.3 30.2 12.4 6.4 52.5- 0.3 2.3---- 0.0------------
1983-07-08 22.6 29.1 11.4 4.6 45.5- 0.0 2.3---- 0.0------------
1983-07-07 24.2 29.9 17.3 13.1 58.0- 0.3 3.0---- 0.0------------
1983-07-06 22.6 29.4 11.8 9.1 57.8- 0.0 2.7---- 0.0------------
1983-07-05 19.8 26.8 9.0 4.9 61.0- 0.0 0.7---- 0.0------------
1983-07-04 19.9 26.4 11.4 8.0 65.3- 0.7 3.3---- 0.0------------
1983-07-03 18.3 25.4 8.3 5.2 63.0- 3.0 1.7---- 0.0------------
1983-07-02 17.9 23.1 12.9 10.3 61.5- 1.7 1.7---- 0.0------------
1983-07-01 19.3 25.8 13.6 8.5 68.3- 5.0 3.0---- 0.3------------
1983-06-30 19.2 24.5 12.7 8.8 59.5- 3.3 1.7---- 0.0------------
1983-06-29 14.6 19.5 7.9 5.8 64.5- 3.0 2.7---- 0.0------------
1983-06-28 14.7 18.4 12.7 11.3 67.3- 3.3 4.7---- 0.0------------
1983-06-27 17.0 24.3 14.2 9.8 81.5- 7.3 1.7---- 10.9------------
1983-06-26 19.7 26.7 10.2 7.0 56.3- 1.3 2.0---- 1.5------------
1983-06-25 20.4 28.3 10.6 7.0 57.0- 2.3 1.7---- 0.0------------
1983-06-24 20.2 29.6 5.7 1.7 48.0- 0.0 1.3---- 0.0------------
1983-06-23 16.8 23.7 5.4 0.7 50.5- 0.0 1.3---- 0.0------------
1983-06-22 16.3 22.2 8.6 4.7 49.0- 0.0 3.0---- 0.0------------
1983-06-21 20.3 27.7 12.0 6.8 55.3- 0.7 4.0---- 0.0------------
1983-06-20 19.2 26.3 10.6 5.2 51.3- 0.0 2.3---- 0.0------------
1983-06-19 17.4 24.0 10.4 9.7 61.3- 0.7 2.3---- 0.0------------
1983-06-18 14.0 17.3 11.5 10.9 78.8- 6.0 2.7---- 0.1------------
1983-06-17 12.8 15.8 9.4 8.0 64.3- 3.3 2.7---- 0.3------------
1983-06-16 13.3 17.2 10.1 9.4 70.3- 3.3 4.3---- 0.0------------
674.4 ms

 

Źródłem pochodzenia danych jest Instytut Meteorologii i Gospodarki Wodnej – Państwowy Instytut Badawczy. Dane Instytutu Meteorologii i Gospodarki Wodnej – Państwowego Instytutu Badawczego zostały przetworzone.

Dane źródłowe można odnaleźć na stronie https://dane.imgw.pl